• Join FlightAware (Why Join?)
  • Login
  • US Flag 
03:01AM EDT


 

Airport Tracker/Info


-or-


 

Live Flight TrackerFlight Track Log ✈ N612CT ✈ 14-11-2013 ✈ KAPF - KPBI

Flight Track Log - Related Links

Times and Time Zones

All times are in EST time to prevent confusion due to time zone crossing. See the N612CT flight status page for this flight to view local times or setup timezone preferences in your user account.

Time Position Orientation Groundspeed Altitude Reporting Facility
EST Latitude Longitude Course Direction KTS MPH feet Rate Location/Type
05:03PM 26.4010 -81.4891 46° Northeast  Level FlightAware Approximate
05:04PM 26.4144 -81.4242 42° Northeast  Level Estimated
05:05PM 26.4279 -81.3594 90° East  Level Estimated
05:06PM 26.4413 -81.2946 31° Northeast  Level Estimated
05:07PM 26.4896 -81.2557 36° Northeast  Level FlightAware Approximate
05:07PM 26.4389 -81.5036 36° Northeast 156 180 5,000  Level Miami Center
05:08PM 26.5380 -81.2168 36° Northeast  Level FlightAware Approximate
05:08PM 26.4731 -81.4747 37° Northeast 156 180 5,100  Level Miami Center
05:09PM 26.5863 -81.1778 36° Northeast  Level FlightAware Approximate
05:09PM 26.5053 -81.4506 34° Northeast 143 165 5,600  Level Miami Center
05:10PM 26.6346 -81.1388 36° Northeast  Level FlightAware Approximate
05:10PM 26.5353 -81.4261 36° Northeast 138 159 6,000  Level Miami Center
05:11PM 26.6829 -81.0998 36° Northeast  Level FlightAware Approximate
05:11PM 26.5653 -81.3972 41° Northeast 138 159 6,500  Level Miami Center
05:12PM 26.5956 -81.3706 38° Northeast 133 153 7,000 240 Climbing Miami Center
05:13PM 26.6278 -81.3414 39° Northeast 138 159 7,000  Level Miami Center
05:14PM 26.6642 -81.3081 39° Northeast 148 170 7,000  Level Miami Center
05:15PM 26.6986 -81.2744 41° Northeast 153 176 7,000  Level Miami Center
05:16PM 26.7267 -81.2431 45° Northeast 160 184 7,000  Level Miami Center
05:17PM 26.7325 -81.1919 83° East 142 163 7,000  Level Miami Center
05:18PM 26.7403 -81.1411 80° East 160 184 7,000  Level Miami Center
05:19PM 26.7439 -81.0878 86° East 160 184 7,000  Level Miami Center
05:20PM 26.7517 -81.0322 81° East 160 184 7,000  Level Miami Center
05:21PM 26.7531 -80.9858 88° East 160 184 7,000  Level Miami Center
05:22PM 26.7606 -80.9372 80° East 160 184 7,000  Level Miami Center
05:23PM 26.7642 -80.8817 86° East 160 184 7,000  Level Miami Center
05:24PM 26.7700 -80.8306 83° East 160 184 7,000  Level Miami Center
05:25PM 26.7756 -80.7797 83° East 160 184 7,000  Level Miami Center
05:26PM 26.7642 -80.7281 104° East 160 184 7,000 -120 Level Miami Center
05:27PM 26.7594 -80.6767 96° East 160 184 6,800 -360 Descending Miami Center
05:28PM 26.7522 -80.6278 99° East 165 190 6,300 -540 Descending Miami Center
05:29PM 26.7433 -80.5692 100° East 165 190 5,800 -540 Descending Miami Center
05:30PM 26.7383 -80.5250 97° East 160 184 5,300 -540 Descending Miami Center
05:32PM 26.7346 -80.4450 93° East  Level FlightAware Approximate
05:39PM 26.6750 -80.1330 101° East  Level FlightAware Approximate
05:40PM 26.6674 -80.0881 101° East  Level FlightAware Approximate
05:41PM 26.6667 -80.0833 101° East  Level FlightAware Approximate
05:42PM 26.6832 -80.0956 101° East  Level Estimated
05:43PM 26.6832 -80.0956 101° East  Level Estimated
05:44PM 26.6832 -80.0956 101° East  Level Estimated
05:45PM 26.6832 -80.0956 101° East  Level Estimated
05:46PM 26.6832 -80.0956 101° East  Level Estimated
05:47PM 26.6832 -80.0956 101° East  Level Estimated
05:48PM 26.6832 -80.0956 101° East  Level Estimated